Terminal Aerodrome Forecast
Issued by NWS

Current Version | Previous Version | Text Only | Print | Product List | Glossary Off
Versions: 1 2 3 4 5 6 7 8 9 10 11 12 13 14

407
FTUS44 KSJT 241736
TAFSOA
TAF
KSOA 241736Z 2418/2518 VRB05KT P6SM SCT100
     FM242000 16008KT P6SM VCTS SCT080CB
     FM250100 16005KT P6SM SCT120=

USA.gov is the U.S. government's official web portal to all federal, state and local government web resources and services.